Energy Zeus — WDD3941 — position and weather

sailwx.info

Track history (hours):
 
Tides and Currents Weather Stations Pressure Air Temp Water Temp Dewpoint Dewpoint Depression Visibility Wind Speed Wind Dir Waves Ship Positions

Energy Zeus

Owner: Seabulk Towing Services, Inc., Fort Lauderdale, FL. More information available from US FCC via Universal Licensing System and Coast Guard Vessel Documentation Center.

Last reported at 2018-Jan-22 13:58 UTC. Time now 2018-Jan-22 14:09 UTC.
Position N 30°06' W 093°17'.

Length 30 m; draft 4 m.

Type: Tug. MMSI: 367138360.

Date/timePositionNaut miles runAvg speedWind from/ knotsBaromVisibWave heightAir tempDewpointWater temp
2018-Jan-22 13:58N 30°06' W 093°17'0 0.0
2018-Jan-22 13:28N 30°06' W 093°17'0 0.0
2018-Jan-22 12:58N 30°06' W 093°17'0 0.0
2018-Jan-22 12:28N 30°06' W 093°17'0 0.0
2018-Jan-22 11:58N 30°06' W 093°17'0 0.0
2018-Jan-22 11:25N 30°06' W 093°17'0 0.0
2018-Jan-22 10:58N 30°06' W 093°17'0 0.0
2018-Jan-22 10:28N 30°06' W 093°17'0 0.0
2018-Jan-22 09:58N 30°06' W 093°17'0 0.0
2018-Jan-22 09:28N 30°06' W 093°17'0 0.0
2018-Jan-22 08:58N 30°06' W 093°17'0 0.0
2018-Jan-22 08:28N 30°06' W 093°17'0 0.0
2018-Jan-22 07:58N 30°06' W 093°17'0 0.0
2018-Jan-22 07:28N 30°06' W 093°17'0 0.0
2018-Jan-22 06:58N 30°06' W 093°17'0 0.0
2018-Jan-22 06:28N 30°06' W 093°17'0 0.0
2018-Jan-22 05:55N 30°06' W 093°17'0 0.0
2018-Jan-22 05:28N 30°06' W 093°17'0 0.0
2018-Jan-22 04:58N 30°06' W 093°17'0 0.0
2018-Jan-22 04:28N 30°06' W 093°17'0 0.0
2018-Jan-22 03:58N 30°06' W 093°17'0 0.0
2018-Jan-22 03:25N 30°06' W 093°17'0 0.0
2018-Jan-22 02:58N 30°06' W 093°17'0 0.0
2018-Jan-22 02:28N 30°06' W 093°17'0 0.0
2018-Jan-22 01:58N 30°06' W 093°17'0 0.0
2018-Jan-22 01:25N 30°06' W 093°17'0 0.0
2018-Jan-22 00:58N 30°06' W 093°17'0 0.0
2018-Jan-22 00:28N 30°06' W 093°17'0 0.0
2018-Jan-21 23:58N 30°06' W 093°17'0 0.0
2018-Jan-21 23:28N 30°06' W 093°17'0 0.0
2018-Jan-21 22:58N 30°06' W 093°17'0 0.0
2018-Jan-21 22:28N 30°06' W 093°17'0 0.0
2018-Jan-21 21:58N 30°06' W 093°17'0 0.0
2018-Jan-21 21:28N 30°06' W 093°17'0 0.0
2018-Jan-21 20:58N 30°06' W 093°17'0 0.0
2018-Jan-21 20:28N 30°06' W 093°17'0 0.0
2018-Jan-21 19:55N 30°06' W 093°17'2 5.3
2018-Jan-21 19:30N 30°07' W 093°20'3 5.9
2018-Jan-21 19:00N 30°09' W 093°20'1 2.4
2018-Jan-21 18:30N 30°11' W 093°19'0 0.0
2018-Jan-21 18:00N 30°11' W 093°19'1 2.7
2018-Jan-21 17:30N 30°12' W 093°18'0 0.0
2018-Jan-21 17:00N 30°12' W 093°18'0 0.0
2018-Jan-21 16:30N 30°12' W 093°18'0 0.0
2018-Jan-21 16:00N 30°12' W 093°18'0 0.0
2018-Jan-21 15:30N 30°12' W 093°18'0 0.0
2018-Jan-21 15:00N 30°12' W 093°18'0 0.0
2018-Jan-21 14:30N 30°12' W 093°18'0 0.0
2018-Jan-21 13:57N 30°12' W 093°18'0 0.0
2018-Jan-21 13:30N 30°12' W 093°18'0 0.0
2018-Jan-21 13:00N 30°12' W 093°18'0 0.0
2018-Jan-21 12:30N 30°12' W 093°18'0 0.0
2018-Jan-21 12:00N 30°12' W 093°18'0 0.0
2018-Jan-21 11:30N 30°12' W 093°18'0 0.0
2018-Jan-21 11:00N 30°12' W 093°18'0 0.0
2018-Jan-21 10:30N 30°12' W 093°18'0 0.0
2018-Jan-21 10:00N 30°12' W 093°18'0 0.0
2018-Jan-21 09:30N 30°12' W 093°18'0 0.0
2018-Jan-21 09:00N 30°12' W 093°18'0 0.0
2018-Jan-21 08:30N 30°12' W 093°18'0 0.0
2018-Jan-21 08:00N 30°12' W 093°18'0 0.0
2018-Jan-21 07:30N 30°12' W 093°18'0 0.0
2018-Jan-21 07:00N 30°12' W 093°18'0 0.0
2018-Jan-21 06:30N 30°12' W 093°18'0 0.0
2018-Jan-21 06:00N 30°12' W 093°18'3 5.9
2018-Jan-21 05:30N 30°09' W 093°20'1 2.0
2018-Jan-21 05:00N 30°10' W 093°19'1 1.0
2018-Jan-21 04:30N 30°11' W 093°19'0 0.5
2018-Jan-21 04:01N 30°11' W 093°19'0 0.0
2018-Jan-21 03:30N 30°11' W 093°19'2 3.1
2018-Jan-21 03:00N 30°09' W 093°20'0 0.0
2018-Jan-21 02:31N 30°09' W 093°20'0 0.2
2018-Jan-21 02:01N 30°09' W 093°20'2 4.3
2018-Jan-21 01:30N 30°07' W 093°20'3 5.3
2018-Jan-21 01:01N 30°05' W 093°20'0 0.3
2018-Jan-21 00:30N 30°04' W 093°20'3 5.0
2018-Jan-20 23:57N 30°06' W 093°17'0 0.0
2018-Jan-20 23:30N 30°06' W 093°17'0 0.0
2018-Jan-20 23:00N 30°06' W 093°17'0 0.0
2018-Jan-20 22:30N 30°06' W 093°17'0 0.0
2018-Jan-20 22:00N 30°06' W 093°17'0 0.0
2018-Jan-20 21:30N 30°06' W 093°17'0 0.0
2018-Jan-20 21:00N 30°06' W 093°17'0 0.0
2018-Jan-20 20:30N 30°06' W 093°17'0 0.0
2018-Jan-20 20:00N 30°06' W 093°17'0 0.0
2018-Jan-20 19:30N 30°06' W 093°17'0 0.0
2018-Jan-20 19:00N 30°06' W 093°17'0 0.0
2018-Jan-20 18:30N 30°06' W 093°17'0 0.0
2018-Jan-20 18:00N 30°06' W 093°17'0 0.0
2018-Jan-20 17:30N 30°06' W 093°17'0 0.0
2018-Jan-20 17:00N 30°06' W 093°17'0 0.0
2018-Jan-20 16:30N 30°06' W 093°17'1 1.5
2018-Jan-20 16:01N 30°06' W 093°18'3 5.6
2018-Jan-20 15:30N 30°09' W 093°20'3 6.3
2018-Jan-20 15:00N 30°11' W 093°18'3 5.1
2018-Jan-20 14:30N 30°13' W 093°16'1 2.2
2018-Jan-20 14:00N 30°14' W 093°15'0 0.4
2018-Jan-20 13:30N 30°14' W 093°15'1 1.3
2018-Jan-20 13:00N 30°13' W 093°15'0 0.8
2018-Jan-20 12:30N 30°13' W 093°15'0 0.5
2018-Jan-20 12:00N 30°13' W 093°16'4 7.8
2018-Jan-20 11:31N 30°11' W 093°19'0 0.9
2018-Jan-20 11:00N 30°10' W 093°19'1 1.8
2018-Jan-20 10:30N 30°11' W 093°19'2 3.5
2018-Jan-20 10:01N 30°09' W 093°20'0 0.2
2018-Jan-20 09:30N 30°09' W 093°20'1 2.8
2018-Jan-20 09:01N 30°11' W 093°19'1 2.6
2018-Jan-20 08:29N 30°12' W 093°18'0 0.0
2018-Jan-20 07:59N 30°12' W 093°18'0 0.0
2018-Jan-20 07:29N 30°12' W 093°18'0 0.0
2018-Jan-20 06:59N 30°12' W 093°18'0 0.0
2018-Jan-20 06:29N 30°12' W 093°18'0 0.0
2018-Jan-20 05:59N 30°12' W 093°18'0 0.0
2018-Jan-20 05:29N 30°12' W 093°18'0 0.0
2018-Jan-20 04:59N 30°12' W 093°18'0 0.0
2018-Jan-20 04:29N 30°12' W 093°18'2 3.3
2018-Jan-20 04:00N 30°10' W 093°19'1 1.9
2018-Jan-20 03:31N 30°10' W 093°19'2 3.1
2018-Jan-20 03:00N 30°11' W 093°19'2 3.5
2018-Jan-20 02:31N 30°09' W 093°20'0 0.1
2018-Jan-20 02:01N 30°09' W 093°20'4 7.2
2018-Jan-20 01:31N 30°06' W 093°20'2 3.8
2018-Jan-20 01:00N 30°06' W 093°17'0 0.0
2018-Jan-20 00:30N 30°06' W 093°17'0 0.0
2018-Jan-20 00:00N 30°06' W 093°17'0 0.0
2018-Jan-19 23:30N 30°06' W 093°17'0 0.0
2018-Jan-19 23:00N 30°06' W 093°17'0 0.0
2018-Jan-19 22:30N 30°06' W 093°17'0 0.0
2018-Jan-19 22:00N 30°06' W 093°17'0 0.0
2018-Jan-19 21:30N 30°06' W 093°17'0 0.0
2018-Jan-19 21:00N 30°06' W 093°17'0 0.0
2018-Jan-19 20:30N 30°06' W 093°17'0 0.0
2018-Jan-19 20:00N 30°06' W 093°17'0 0.0
2018-Jan-19 19:30N 30°06' W 093°17'0 0.0
2018-Jan-19 19:00N 30°06' W 093°17'0 0.0
2018-Jan-19 18:30N 30°06' W 093°17'0 0.0
2018-Jan-19 18:00N 30°06' W 093°17'0 0.0
2018-Jan-19 17:30N 30°06' W 093°17'0 0.0
2018-Jan-19 17:00N 30°06' W 093°17'0 0.0
2018-Jan-19 16:30N 30°06' W 093°17'0 0.0
2018-Jan-19 16:00N 30°06' W 093°17'0 0.0
2018-Jan-19 15:28N 30°06' W 093°17'2 4.6
2018-Jan-19 15:00N 30°06' W 093°20'3 5.5
2018-Jan-19 14:30N 30°09' W 093°20'2 3.6
2018-Jan-19 14:00N 30°11' W 093°19'1 2.6
2018-Jan-19 13:29N 30°12' W 093°18'0 0.0
2018-Jan-19 12:56N 30°12' W 093°18'0 0.9
2018-Jan-19 12:30N 30°12' W 093°17'2 3.8
2018-Jan-19 12:00N 30°13' W 093°15'0 0.0
2018-Jan-19 11:21N 30°13' W 093°15'0 0.0
2018-Jan-19 11:00N 30°13' W 093°15'0 0.0
2018-Jan-19 10:30N 30°13' W 093°15'0 0.0
2018-Jan-19 10:00N 30°13' W 093°15'0 0.0
2018-Jan-19 09:27N 30°13' W 093°15'0 0.0
2018-Jan-19 09:00N 30°13' W 093°15'0 0.0
2018-Jan-19 08:30N 30°13' W 093°15'0 0.4
2018-Jan-19 08:00N 30°13' W 093°16'1 2.1
2018-Jan-19 07:30N 30°14' W 093°15'0 0.0
2018-Jan-19 07:00N 30°14' W 093°15'1 1.2
2018-Jan-19 06:30N 30°13' W 093°14'1 2.2
2018-Jan-19 06:00N 30°13' W 093°16'2 4.6
2018-Jan-19 05:30N 30°11' W 093°18'2 3.6
2018-Jan-19 05:00N 30°10' W 093°19'2 3.6
2018-Jan-19 04:29N 30°08' W 093°20'3 5.5
2018-Jan-19 04:00N 30°06' W 093°20'3 6.0
2018-Jan-19 03:30N 30°03' W 093°20'3 6.7
2018-Jan-19 03:00N 30°06' W 093°19'1 2.6
2018-Jan-19 02:30N 30°06' W 093°17'0 0.0
2018-Jan-19 02:00N 30°06' W 093°17'0 0.0
2018-Jan-19 01:30N 30°06' W 093°17'0 0.0
2018-Jan-19 01:00N 30°06' W 093°17'1 1.5
2018-Jan-19 00:30N 30°06' W 093°18'3 5.1
2018-Jan-19 00:00N 30°09' W 093°20'2 4.1
2018-Jan-18 23:30N 30°10' W 093°19'0 0.8
2018-Jan-18 23:00N 30°11' W 093°19'1 1.1
2018-Jan-18 22:30N 30°10' W 093°19'2 4.7
2018-Jan-18 22:00N 30°08' W 093°20'0 0.2
2018-Jan-18 21:30N 30°08' W 093°20'2 3.2
2018-Jan-18 21:00N 30°10' W 093°20'3 6.6
2018-Jan-18 20:30N 30°12' W 093°17'2 4.5
2018-Jan-18 20:00N 30°14' W 093°15'0 0.0
2018-Jan-18 19:30N 30°14' W 093°15'2 4.1
2018-Jan-18 19:00N 30°12' W 093°17'3 5.3
2018-Jan-18 18:30N 30°10' W 093°19'2 3.9
2018-Jan-18 18:00N 30°09' W 093°20'3 6.2
2018-Jan-18 17:30N 30°06' W 093°19'2 3.8
2018-Jan-18 17:00N 30°06' W 093°17'0 0.0
2018-Jan-18 16:30N 30°06' W 093°17'0 0.0
2018-Jan-18 15:58N 30°06' W 093°17'0 0.0
2018-Jan-18 15:25N 30°06' W 093°17'0 0.0
2018-Jan-18 14:58N 30°06' W 093°17'0 0.0
2018-Jan-18 14:28N 30°06' W 093°17'0 0.0
2018-Jan-18 13:58N 30°06' W 093°17'0 0.0
2018-Jan-18 13:28N 30°06' W 093°17'0 0.0
2018-Jan-18 12:58N 30°06' W 093°17'0 0.0
2018-Jan-18 12:28N 30°06' W 093°17'0 0.0
2018-Jan-18 11:58N 30°06' W 093°17'0 0.0
2018-Jan-18 11:28N 30°06' W 093°17'0 0.0
2018-Jan-18 10:58N 30°06' W 093°17'0 0.0
2018-Jan-18 10:28N 30°06' W 093°17'0 0.0
2018-Jan-18 09:58N 30°06' W 093°17'0 0.0
2018-Jan-18 09:28N 30°06' W 093°17'0 0.0
2018-Jan-18 08:58N 30°06' W 093°17'0 0.0
2018-Jan-18 08:28N 30°06' W 093°17'0 0.0
2018-Jan-18 07:58N 30°06' W 093°17'0 0.0
2018-Jan-18 07:28N 30°06' W 093°17'0 0.0
2018-Jan-18 06:58N 30°06' W 093°17'0 0.0
2018-Jan-18 06:28N 30°06' W 093°17'2 4.8
2018-Jan-18 06:00N 30°07' W 093°20'3 5.6
2018-Jan-18 05:29N 30°09' W 093°20'0 0.0
2018-Jan-18 05:00N 30°09' W 093°20'0 0.2
2018-Jan-18 04:30N 30°09' W 093°20'2 3.6
2018-Jan-18 04:00N 30°08' W 093°20'3 5.6
2018-Jan-18 03:30N 30°05' W 093°20'1 1.6
2018-Jan-18 03:00N 30°06' W 093°19'2 3.5
2018-Jan-18 02:28N 30°06' W 093°17'0 0.0
2018-Jan-18 01:58N 30°06' W 093°17'0 0.0
2018-Jan-18 01:28N 30°06' W 093°17'0 0.0
2018-Jan-18 00:58N 30°06' W 093°17'0 0.0
2018-Jan-17 23:58N 30°06' W 093°17'0 0.0
2018-Jan-17 23:55N 30°06' W 093°17'  
2018-Jan-12 15:00N 30°08' W 093°20'4 8.6
2018-Jan-12 14:30N 30°12' W 093°17'2 3.7
2018-Jan-12 13:59N 30°13' W 093°15'  
Track history (hours):
 
Tides and Currents Weather Stations Pressure Air Temp Water Temp Dewpoint Dewpoint Depression Visibility Wind Speed Wind Dir Waves Ship Positions

Energy Zeus

Owner: Seabulk Towing Services, Inc., Fort Lauderdale, FL. More information available from US FCC via Universal Licensing System and Coast Guard Vessel Documentation Center.

Last reported at 2018-Jan-22 13:58 UTC. Time now 2018-Jan-22 14:09 UTC.
Position N 30°06' W 093°17'.

Length 30 m; draft 4 m.

Type: Tug. MMSI: 367138360.

Date/timePositionNaut miles runAvg speedWind from/ knotsBaromVisibWave heightAir tempDewpointWater temp
2018-Jan-22 13:58N 30°06' W 093°17'0 0.0
2018-Jan-22 13:28N 30°06' W 093°17'0 0.0
2018-Jan-22 12:58N 30°06' W 093°17'0 0.0
2018-Jan-22 12:28N 30°06' W 093°17'0 0.0
2018-Jan-22 11:58N 30°06' W 093°17'0 0.0
2018-Jan-22 11:25N 30°06' W 093°17'0 0.0
2018-Jan-22 10:58N 30°06' W 093°17'0 0.0
2018-Jan-22 10:28N 30°06' W 093°17'0 0.0
2018-Jan-22 09:58N 30°06' W 093°17'0 0.0
2018-Jan-22 09:28N 30°06' W 093°17'0 0.0
2018-Jan-22 08:58N 30°06' W 093°17'0 0.0
2018-Jan-22 08:28N 30°06' W 093°17'0 0.0
2018-Jan-22 07:58N 30°06' W 093°17'0 0.0
2018-Jan-22 07:28N 30°06' W 093°17'0 0.0
2018-Jan-22 06:58N 30°06' W 093°17'0 0.0
2018-Jan-22 06:28N 30°06' W 093°17'0 0.0
2018-Jan-22 05:55N 30°06' W 093°17'0 0.0
2018-Jan-22 05:28N 30°06' W 093°17'0 0.0
2018-Jan-22 04:58N 30°06' W 093°17'0 0.0
2018-Jan-22 04:28N 30°06' W 093°17'0 0.0
2018-Jan-22 03:58N 30°06' W 093°17'0 0.0
2018-Jan-22 03:25N 30°06' W 093°17'0 0.0
2018-Jan-22 02:58N 30°06' W 093°17'0 0.0
2018-Jan-22 02:28N 30°06' W 093°17'0 0.0
2018-Jan-22 01:58N 30°06' W 093°17'0 0.0
2018-Jan-22 01:25N 30°06' W 093°17'0 0.0
2018-Jan-22 00:58N 30°06' W 093°17'0 0.0
2018-Jan-22 00:28N 30°06' W 093°17'0 0.0
2018-Jan-21 23:58N 30°06' W 093°17'0 0.0
2018-Jan-21 23:28N 30°06' W 093°17'0 0.0
2018-Jan-21 22:58N 30°06' W 093°17'0 0.0
2018-Jan-21 22:28N 30°06' W 093°17'0 0.0
2018-Jan-21 21:58N 30°06' W 093°17'0 0.0
2018-Jan-21 21:28N 30°06' W 093°17'0 0.0
2018-Jan-21 20:58N 30°06' W 093°17'0 0.0
2018-Jan-21 20:28N 30°06' W 093°17'0 0.0
2018-Jan-21 19:55N 30°06' W 093°17'2 5.3
2018-Jan-21 19:30N 30°07' W 093°20'3 5.9
2018-Jan-21 19:00N 30°09' W 093°20'1 2.4
2018-Jan-21 18:30N 30°11' W 093°19'0 0.0
2018-Jan-21 18:00N 30°11' W 093°19'1 2.7
2018-Jan-21 17:30N 30°12' W 093°18'0 0.0
2018-Jan-21 17:00N 30°12' W 093°18'0 0.0
2018-Jan-21 16:30N 30°12' W 093°18'0 0.0
2018-Jan-21 16:00N 30°12' W 093°18'0 0.0
2018-Jan-21 15:30N 30°12' W 093°18'0 0.0
2018-Jan-21 15:00N 30°12' W 093°18'0 0.0
2018-Jan-21 14:30N 30°12' W 093°18'0 0.0
2018-Jan-21 13:57N 30°12' W 093°18'0 0.0
2018-Jan-21 13:30N 30°12' W 093°18'0 0.0
2018-Jan-21 13:00N 30°12' W 093°18'0 0.0
2018-Jan-21 12:30N 30°12' W 093°18'0 0.0
2018-Jan-21 12:00N 30°12' W 093°18'0 0.0
2018-Jan-21 11:30N 30°12' W 093°18'0 0.0
2018-Jan-21 11:00N 30°12' W 093°18'0 0.0
2018-Jan-21 10:30N 30°12' W 093°18'0 0.0
2018-Jan-21 10:00N 30°12' W 093°18'0 0.0
2018-Jan-21 09:30N 30°12' W 093°18'0 0.0
2018-Jan-21 09:00N 30°12' W 093°18'0 0.0
2018-Jan-21 08:30N 30°12' W 093°18'0 0.0
2018-Jan-21 08:00N 30°12' W 093°18'0 0.0
2018-Jan-21 07:30N 30°12' W 093°18'0 0.0
2018-Jan-21 07:00N 30°12' W 093°18'0 0.0
2018-Jan-21 06:30N 30°12' W 093°18'0 0.0
2018-Jan-21 06:00N 30°12' W 093°18'3 5.9
2018-Jan-21 05:30N 30°09' W 093°20'1 2.0
2018-Jan-21 05:00N 30°10' W 093°19'1 1.0
2018-Jan-21 04:30N 30°11' W 093°19'0 0.5
2018-Jan-21 04:01N 30°11' W 093°19'0 0.0
2018-Jan-21 03:30N 30°11' W 093°19'2 3.1
2018-Jan-21 03:00N 30°09' W 093°20'0 0.0
2018-Jan-21 02:31N 30°09' W 093°20'0 0.2
2018-Jan-21 02:01N 30°09' W 093°20'2 4.3
2018-Jan-21 01:30N 30°07' W 093°20'3 5.3
2018-Jan-21 01:01N 30°05' W 093°20'0 0.3
2018-Jan-21 00:30N 30°04' W 093°20'3 5.0
2018-Jan-20 23:57N 30°06' W 093°17'0 0.0
2018-Jan-20 23:30N 30°06' W 093°17'0 0.0
2018-Jan-20 23:00N 30°06' W 093°17'0 0.0
2018-Jan-20 22:30N 30°06' W 093°17'0 0.0
2018-Jan-20 22:00N 30°06' W 093°17'0 0.0
2018-Jan-20 21:30N 30°06' W 093°17'0 0.0
2018-Jan-20 21:00N 30°06' W 093°17'0 0.0
2018-Jan-20 20:30N 30°06' W 093°17'0 0.0
2018-Jan-20 20:00N 30°06' W 093°17'0 0.0
2018-Jan-20 19:30N 30°06' W 093°17'0 0.0
2018-Jan-20 19:00N 30°06' W 093°17'0 0.0
2018-Jan-20 18:30N 30°06' W 093°17'0 0.0
2018-Jan-20 18:00N 30°06' W 093°17'0 0.0
2018-Jan-20 17:30N 30°06' W 093°17'0 0.0
2018-Jan-20 17:00N 30°06' W 093°17'0 0.0
2018-Jan-20 16:30N 30°06' W 093°17'1 1.5
2018-Jan-20 16:01N 30°06' W 093°18'3 5.6
2018-Jan-20 15:30N 30°09' W 093°20'3 6.3
2018-Jan-20 15:00N 30°11' W 093°18'3 5.1
2018-Jan-20 14:30N 30°13' W 093°16'1 2.2
2018-Jan-20 14:00N 30°14' W 093°15'0 0.4
2018-Jan-20 13:30N 30°14' W 093°15'1 1.3
2018-Jan-20 13:00N 30°13' W 093°15'0 0.8
2018-Jan-20 12:30N 30°13' W 093°15'0 0.5
2018-Jan-20 12:00N 30°13' W 093°16'4 7.8
2018-Jan-20 11:31N 30°11' W 093°19'0 0.9
2018-Jan-20 11:00N 30°10' W 093°19'1 1.8
2018-Jan-20 10:30N 30°11' W 093°19'2 3.5
2018-Jan-20 10:01N 30°09' W 093°20'0 0.2
2018-Jan-20 09:30N 30°09' W 093°20'1 2.8
2018-Jan-20 09:01N 30°11' W 093°19'1 2.6
2018-Jan-20 08:29N 30°12' W 093°18'0 0.0
2018-Jan-20 07:59N 30°12' W 093°18'0 0.0
2018-Jan-20 07:29N 30°12' W 093°18'0 0.0
2018-Jan-20 06:59N 30°12' W 093°18'0 0.0
2018-Jan-20 06:29N 30°12' W 093°18'0 0.0
2018-Jan-20 05:59N 30°12' W 093°18'0 0.0
2018-Jan-20 05:29N 30°12' W 093°18'0 0.0
2018-Jan-20 04:59N 30°12' W 093°18'0 0.0
2018-Jan-20 04:29N 30°12' W 093°18'2 3.3
2018-Jan-20 04:00N 30°10' W 093°19'1 1.9
2018-Jan-20 03:31N 30°10' W 093°19'2 3.1
2018-Jan-20 03:00N 30°11' W 093°19'2 3.5
2018-Jan-20 02:31N 30°09' W 093°20'0 0.1
2018-Jan-20 02:01N 30°09' W 093°20'4 7.2
2018-Jan-20 01:31N 30°06' W 093°20'2 3.8
2018-Jan-20 01:00N 30°06' W 093°17'0 0.0
2018-Jan-20 00:30N 30°06' W 093°17'0 0.0
2018-Jan-20 00:00N 30°06' W 093°17'0 0.0
2018-Jan-19 23:30N 30°06' W 093°17'0 0.0
2018-Jan-19 23:00N 30°06' W 093°17'0 0.0
2018-Jan-19 22:30N 30°06' W 093°17'0 0.0
2018-Jan-19 22:00N 30°06' W 093°17'0 0.0
2018-Jan-19 21:30N 30°06' W 093°17'0 0.0
2018-Jan-19 21:00N 30°06' W 093°17'0 0.0
2018-Jan-19 20:30N 30°06' W 093°17'0 0.0
2018-Jan-19 20:00N 30°06' W 093°17'0 0.0
2018-Jan-19 19:30N 30°06' W 093°17'0 0.0
2018-Jan-19 19:00N 30°06' W 093°17'0 0.0
2018-Jan-19 18:30N 30°06' W 093°17'0 0.0
2018-Jan-19 18:00N 30°06' W 093°17'0 0.0
2018-Jan-19 17:30N 30°06' W 093°17'0 0.0
2018-Jan-19 17:00N 30°06' W 093°17'0 0.0
2018-Jan-19 16:30N 30°06' W 093°17'0 0.0
2018-Jan-19 16:00N 30°06' W 093°17'0 0.0
2018-Jan-19 15:28N 30°06' W 093°17'2 4.6
2018-Jan-19 15:00N 30°06' W 093°20'3 5.5
2018-Jan-19 14:30N 30°09' W 093°20'2 3.6
2018-Jan-19 14:00N 30°11' W 093°19'1 2.6
2018-Jan-19 13:29N 30°12' W 093°18'0 0.0
2018-Jan-19 12:56N 30°12' W 093°18'0 0.9
2018-Jan-19 12:30N 30°12' W 093°17'2 3.8
2018-Jan-19 12:00N 30°13' W 093°15'0 0.0
2018-Jan-19 11:21N 30°13' W 093°15'0 0.0
2018-Jan-19 11:00N 30°13' W 093°15'0 0.0
2018-Jan-19 10:30N 30°13' W 093°15'0 0.0
2018-Jan-19 10:00N 30°13' W 093°15'0 0.0
2018-Jan-19 09:27N 30°13' W 093°15'0 0.0
2018-Jan-19 09:00N 30°13' W 093°15'0 0.0
2018-Jan-19 08:30N 30°13' W 093°15'0 0.4
2018-Jan-19 08:00N 30°13' W 093°16'1 2.1
2018-Jan-19 07:30N 30°14' W 093°15'0 0.0
2018-Jan-19 07:00N 30°14' W 093°15'1 1.2
2018-Jan-19 06:30N 30°13' W 093°14'1 2.2
2018-Jan-19 06:00N 30°13' W 093°16'2 4.6
2018-Jan-19 05:30N 30°11' W 093°18'2 3.6
2018-Jan-19 05:00N 30°10' W 093°19'2 3.6
2018-Jan-19 04:29N 30°08' W 093°20'3 5.5
2018-Jan-19 04:00N 30°06' W 093°20'3 6.0
2018-Jan-19 03:30N 30°03' W 093°20'3 6.7
2018-Jan-19 03:00N 30°06' W 093°19'1 2.6
2018-Jan-19 02:30N 30°06' W 093°17'0 0.0
2018-Jan-19 02:00N 30°06' W 093°17'0 0.0
2018-Jan-19 01:30N 30°06' W 093°17'0 0.0
2018-Jan-19 01:00N 30°06' W 093°17'1 1.5
2018-Jan-19 00:30N 30°06' W 093°18'3 5.1
2018-Jan-19 00:00N 30°09' W 093°20'2 4.1
2018-Jan-18 23:30N 30°10' W 093°19'0 0.8
2018-Jan-18 23:00N 30°11' W 093°19'1 1.1
2018-Jan-18 22:30N 30°10' W 093°19'2 4.7
2018-Jan-18 22:00N 30°08' W 093°20'0 0.2
2018-Jan-18 21:30N 30°08' W 093°20'2 3.2
2018-Jan-18 21:00N 30°10' W 093°20'3 6.6
2018-Jan-18 20:30N 30°12' W 093°17'2 4.5
2018-Jan-18 20:00N 30°14' W 093°15'0 0.0
2018-Jan-18 19:30N 30°14' W 093°15'2 4.1
2018-Jan-18 19:00N 30°12' W 093°17'3 5.3
2018-Jan-18 18:30N 30°10' W 093°19'2 3.9
2018-Jan-18 18:00N 30°09' W 093°20'3 6.2
2018-Jan-18 17:30N 30°06' W 093°19'2 3.8
2018-Jan-18 17:00N 30°06' W 093°17'0 0.0
2018-Jan-18 16:30N 30°06' W 093°17'0 0.0
2018-Jan-18 15:58N 30°06' W 093°17'0 0.0
2018-Jan-18 15:25N 30°06' W 093°17'0 0.0
2018-Jan-18 14:58N 30°06' W 093°17'0 0.0
2018-Jan-18 14:28N 30°06' W 093°17'0 0.0
2018-Jan-18 13:58N 30°06' W 093°17'0 0.0
2018-Jan-18 13:28N 30°06' W 093°17'0 0.0
2018-Jan-18 12:58N 30°06' W 093°17'0 0.0
2018-Jan-18 12:28N 30°06' W 093°17'0 0.0
2018-Jan-18 11:58N 30°06' W 093°17'0 0.0
2018-Jan-18 11:28N 30°06' W 093°17'0 0.0
2018-Jan-18 10:58N 30°06' W 093°17'0 0.0
2018-Jan-18 10:28N 30°06' W 093°17'0 0.0
2018-Jan-18 09:58N 30°06' W 093°17'0 0.0
2018-Jan-18 09:28N 30°06' W 093°17'0 0.0
2018-Jan-18 08:58N 30°06' W 093°17'0 0.0
2018-Jan-18 08:28N 30°06' W 093°17'0 0.0
2018-Jan-18 07:58N 30°06' W 093°17'0 0.0
2018-Jan-18 07:28N 30°06' W 093°17'0 0.0
2018-Jan-18 06:58N 30°06' W 093°17'0 0.0
2018-Jan-18 06:28N 30°06' W 093°17'2 4.8
2018-Jan-18 06:00N 30°07' W 093°20'3 5.6
2018-Jan-18 05:29N 30°09' W 093°20'0 0.0
2018-Jan-18 05:00N 30°09' W 093°20'0 0.2
2018-Jan-18 04:30N 30°09' W 093°20'2 3.6
2018-Jan-18 04:00N 30°08' W 093°20'3 5.6
2018-Jan-18 03:30N 30°05' W 093°20'1 1.6
2018-Jan-18 03:00N 30°06' W 093°19'2 3.5
2018-Jan-18 02:28N 30°06' W 093°17'0 0.0
2018-Jan-18 01:58N 30°06' W 093°17'0 0.0
2018-Jan-18 01:28N 30°06' W 093°17'0 0.0
2018-Jan-18 00:58N 30°06' W 093°17'0 0.0
2018-Jan-17 23:58N 30°06' W 093°17'0 0.0
2018-Jan-17 23:55N 30°06' W 093°17'  
2018-Jan-12 15:00N 30°08' W 093°20'4 8.6
2018-Jan-12 14:30N 30°12' W 093°17'2 3.7
2018-Jan-12 13:59N 30°13' W 093°15'  

Dump ship's entire track history